sensor_id;sensor_type;location;lat;lon;timestamp;pressure;altitude;pressure_sealevel;temperature
74539;BMP180;66042;51.090;-115.340;2023-08-24T00:02:01;86537.20;;;30.88
74539;BMP180;66042;51.090;-115.340;2023-08-24T00:04:29;86539.60;;;31.62
74539;BMP180;66042;51.090;-115.340;2023-08-24T00:06:55;86553.80;;;30.98
74539;BMP180;66042;51.090;-115.340;2023-08-24T00:09:22;86544.00;;;30.20
74539;BMP180;66042;51.090;-115.340;2023-08-24T00:11:50;86544.80;;;29.68
74539;BMP180;66042;51.090;-115.340;2023-08-24T00:14:17;86552.80;;;29.08
74539;BMP180;66042;51.090;-115.340;2023-08-24T00:16:44;86544.80;;;28.90
74539;BMP180;66042;51.090;-115.340;2023-08-24T00:19:11;86538.20;;;28.34
74539;BMP180;66042;51.090;-115.340;2023-08-24T00:21:38;86541.80;;;27.74
74539;BMP180;66042;51.090;-115.340;2023-08-24T00:24:05;86537.60;;;27.20
74539;BMP180;66042;51.090;-115.340;2023-08-24T00:26:32;86529.80;;;27.10
74539;BMP180;66042;51.090;-115.340;2023-08-24T00:29:00;86538.40;;;26.60
74539;BMP180;66042;51.090;-115.340;2023-08-24T00:31:26;86548.00;;;26.20
74539;BMP180;66042;51.090;-115.340;2023-08-24T00:33:54;86554.40;;;25.70
74539;BMP180;66042;51.090;-115.340;2023-08-24T00:36:21;86559.00;;;25.24
74539;BMP180;66042;51.090;-115.340;2023-08-24T00:38:49;86546.60;;;25.14
74539;BMP180;66042;51.090;-115.340;2023-08-24T00:41:18;86557.80;;;24.80
74539;BMP180;66042;51.090;-115.340;2023-08-24T00:43:45;86560.60;;;24.20
74539;BMP180;66042;51.090;-115.340;2023-08-24T00:46:13;86568.00;;;23.56
74539;BMP180;66042;51.090;-115.340;2023-08-24T00:48:40;86571.00;;;23.10
74539;BMP180;66042;51.090;-115.340;2023-08-24T00:51:08;86566.40;;;22.66
74539;BMP180;66042;51.090;-115.340;2023-08-24T00:53:37;86573.20;;;22.20
74539;BMP180;66042;51.090;-115.340;2023-08-24T00:56:05;86577.80;;;21.72
74539;BMP180;66042;51.090;-115.340;2023-08-24T00:58:33;86568.00;;;21.40
74539;BMP180;66042;51.090;-115.340;2023-08-24T01:01:00;86563.40;;;21.10
74539;BMP180;66042;51.090;-115.340;2023-08-24T01:03:27;86594.60;;;20.72
74539;BMP180;66042;51.090;-115.340;2023-08-24T01:05:55;86601.00;;;20.24
74539;BMP180;66042;51.090;-115.340;2023-08-24T01:08:23;86600.40;;;19.90
74539;BMP180;66042;51.090;-115.340;2023-08-24T01:11:25;86608.60;;;19.44
74539;BMP180;66042;51.090;-115.340;2023-08-24T01:14:09;86616.00;;;18.98
74539;BMP180;66042;51.090;-115.340;2023-08-24T01:16:43;86651.40;;;18.50
74539;BMP180;66042;51.090;-115.340;2023-08-24T01:19:52;86666.80;;;18.08
74539;BMP180;66042;51.090;-115.340;2023-08-24T01:25:20;86676.00;;;17.40
74539;BMP180;66042;51.090;-115.340;2023-08-24T01:27:51;86658.20;;;16.98
74539;BMP180;66042;51.090;-115.340;2023-08-24T01:30:19;86695.00;;;16.80
74539;BMP180;66042;51.090;-115.340;2023-08-24T01:32:46;86714.60;;;16.50
74539;BMP180;66042;51.090;-115.340;2023-08-24T01:35:13;86736.80;;;16.12
74539;BMP180;66042;51.090;-115.340;2023-08-24T01:37:40;86749.00;;;15.80
74539;BMP180;66042;51.090;-115.340;2023-08-24T01:40:42;86746.60;;;15.60
74539;BMP180;66042;51.090;-115.340;2023-08-24T01:43:14;86744.60;;;15.04
74539;BMP180;66042;51.090;-115.340;2023-08-24T01:45:44;86798.60;;;14.60
74539;BMP180;66042;51.090;-115.340;2023-08-24T01:48:13;86795.60;;;14.40
74539;BMP180;66042;51.090;-115.340;2023-08-24T01:50:42;86812.20;;;14.20
74539;BMP180;66042;51.090;-115.340;2023-08-24T01:53:09;86766.20;;;14.12
74539;BMP180;66042;51.090;-115.340;2023-08-24T01:55:37;86777.80;;;14.20
74539;BMP180;66042;51.090;-115.340;2023-08-24T01:58:03;86760.20;;;14.28
74539;BMP180;66042;51.090;-115.340;2023-08-24T02:00:31;86738.80;;;14.30
74539;BMP180;66042;51.090;-115.340;2023-08-24T02:02:57;86719.40;;;14.30
74539;BMP180;66042;51.090;-115.340;2023-08-24T02:05:25;86714.20;;;14.40
74539;BMP180;66042;51.090;-115.340;2023-08-24T02:07:53;86700.40;;;14.40
74539;BMP180;66042;51.090;-115.340;2023-08-24T02:10:20;86707.80;;;14.30
74539;BMP180;66042;51.090;-115.340;2023-08-24T02:12:48;86711.00;;;14.30
74539;BMP180;66042;51.090;-115.340;2023-08-24T02:15:14;86701.40;;;14.20
74539;BMP180;66042;51.090;-115.340;2023-08-24T02:17:41;86685.80;;;14.10
74539;BMP180;66042;51.090;-115.340;2023-08-24T02:20:09;86690.40;;;13.86
74539;BMP180;66042;51.090;-115.340;2023-08-24T02:22:38;86702.60;;;13.70
74539;BMP180;66042;51.090;-115.340;2023-08-24T02:25:06;86707.40;;;13.70
74539;BMP180;66042;51.090;-115.340;2023-08-24T02:27:33;86706.00;;;13.70
74539;BMP180;66042;51.090;-115.340;2023-08-24T02:30:01;86701.40;;;13.66
74539;BMP180;66042;51.090;-115.340;2023-08-24T02:32:28;86693.80;;;13.60
74539;BMP180;66042;51.090;-115.340;2023-08-24T02:34:55;86690.00;;;13.56
74539;BMP180;66042;51.090;-115.340;2023-08-24T02:37:22;86691.20;;;13.40
74539;BMP180;66042;51.090;-115.340;2023-08-24T02:39:50;86697.40;;;13.38
74539;BMP180;66042;51.090;-115.340;2023-08-24T02:42:17;86703.20;;;13.30
74539;BMP180;66042;51.090;-115.340;2023-08-24T02:44:44;86705.60;;;13.30
74539;BMP180;66042;51.090;-115.340;2023-08-24T02:47:11;86705.40;;;13.20
74539;BMP180;66042;51.090;-115.340;2023-08-24T02:49:38;86699.00;;;13.10
74539;BMP180;66042;51.090;-115.340;2023-08-24T02:52:06;86700.80;;;13.10
74539;BMP180;66042;51.090;-115.340;2023-08-24T02:54:33;86694.20;;;13.04
74539;BMP180;66042;51.090;-115.340;2023-08-24T02:57:00;86695.60;;;13.08
74539;BMP180;66042;51.090;-115.340;2023-08-24T02:59:27;86682.80;;;13.10
74539;BMP180;66042;51.090;-115.340;2023-08-24T03:01:54;86694.60;;;13.02
74539;BMP180;66042;51.090;-115.340;2023-08-24T03:04:21;86684.00;;;13.00
74539;BMP180;66042;51.090;-115.340;2023-08-24T03:06:48;86698.00;;;12.96
74539;BMP180;66042;51.090;-115.340;2023-08-24T03:09:16;86695.80;;;13.00
74539;BMP180;66042;51.090;-115.340;2023-08-24T03:11:43;86705.40;;;13.00
74539;BMP180;66042;51.090;-115.340;2023-08-24T03:14:10;86697.00;;;12.94
74539;BMP180;66042;51.090;-115.340;2023-08-24T03:16:38;86694.60;;;12.90
74539;BMP180;66042;51.090;-115.340;2023-08-24T03:19:05;86701.40;;;12.90
74539;BMP180;66042;51.090;-115.340;2023-08-24T03:21:33;86705.60;;;12.82
74539;BMP180;66042;51.090;-115.340;2023-08-24T03:24:00;86703.60;;;12.80
74539;BMP180;66042;51.090;-115.340;2023-08-24T03:26:26;86704.80;;;12.78
74539;BMP180;66042;51.090;-115.340;2023-08-24T03:28:53;86713.60;;;12.70
74539;BMP180;66042;51.090;-115.340;2023-08-24T03:31:20;86715.40;;;12.70
74539;BMP180;66042;51.090;-115.340;2023-08-24T03:33:47;86720.60;;;12.60
74539;BMP180;66042;51.090;-115.340;2023-08-24T03:36:14;86726.00;;;12.52
74539;BMP180;66042;51.090;-115.340;2023-08-24T03:38:41;86728.40;;;12.50
74539;BMP180;66042;51.090;-115.340;2023-08-24T03:41:08;86733.60;;;12.50
74539;BMP180;66042;51.090;-115.340;2023-08-24T03:43:35;86736.00;;;12.50
74539;BMP180;66042;51.090;-115.340;2023-08-24T03:46:04;86727.40;;;12.50
74539;BMP180;66042;51.090;-115.340;2023-08-24T03:48:33;86724.00;;;12.56
74539;BMP180;66042;51.090;-115.340;2023-08-24T03:51:00;86732.60;;;12.50
74539;BMP180;66042;51.090;-115.340;2023-08-24T03:53:29;86721.00;;;12.50
74539;BMP180;66042;51.090;-115.340;2023-08-24T03:55:56;86710.60;;;12.50
74539;BMP180;66042;51.090;-115.340;2023-08-24T03:58:23;86720.20;;;12.50
74539;BMP180;66042;51.090;-115.340;2023-08-24T04:00:50;86723.00;;;12.50
74539;BMP180;66042;51.090;-115.340;2023-08-24T04:03:16;86728.60;;;12.50
74539;BMP180;66042;51.090;-115.340;2023-08-24T04:05:44;86728.00;;;12.50
74539;BMP180;66042;51.090;-115.340;2023-08-24T04:08:11;86721.40;;;12.50
74539;BMP180;66042;51.090;-115.340;2023-08-24T04:10:38;86725.20;;;12.50
74539;BMP180;66042;51.090;-115.340;2023-08-24T04:13:05;86734.60;;;12.50
74539;BMP180;66042;51.090;-115.340;2023-08-24T04:15:32;86743.40;;;12.50
74539;BMP180;66042;51.090;-115.340;2023-08-24T04:17:59;86741.00;;;12.40
74539;BMP180;66042;51.090;-115.340;2023-08-24T04:20:26;86742.40;;;12.38
74539;BMP180;66042;51.090;-115.340;2023-08-24T04:22:54;86739.60;;;12.40
74539;BMP180;66042;51.090;-115.340;2023-08-24T04:25:22;86740.00;;;12.40
74539;BMP180;66042;51.090;-115.340;2023-08-24T04:27:50;86738.80;;;12.38
74539;BMP180;66042;51.090;-115.340;2023-08-24T04:30:17;86732.00;;;12.38
74539;BMP180;66042;51.090;-115.340;2023-08-24T04:32:44;86731.80;;;12.30
74539;BMP180;66042;51.090;-115.340;2023-08-24T04:35:11;86737.00;;;12.30
74539;BMP180;66042;51.090;-115.340;2023-08-24T04:37:37;86749.60;;;12.28
74539;BMP180;66042;51.090;-115.340;2023-08-24T04:40:05;86750.80;;;12.20
74539;BMP180;66042;51.090;-115.340;2023-08-24T04:42:34;86747.80;;;12.20
74539;BMP180;66042;51.090;-115.340;2023-08-24T04:45:01;86752.60;;;12.20
74539;BMP180;66042;51.090;-115.340;2023-08-24T04:47:28;86743.60;;;12.20
74539;BMP180;66042;51.090;-115.340;2023-08-24T04:49:56;86738.00;;;12.16
74539;BMP180;66042;51.090;-115.340;2023-08-24T04:52:23;86742.20;;;12.16
74539;BMP180;66042;51.090;-115.340;2023-08-24T04:54:50;86740.20;;;12.10
74539;BMP180;66042;51.090;-115.340;2023-08-24T04:57:17;86737.00;;;12.10
74539;BMP180;66042;51.090;-115.340;2023-08-24T04:59:45;86730.60;;;12.10
74539;BMP180;66042;51.090;-115.340;2023-08-24T05:02:12;86730.40;;;12.10
74539;BMP180;66042;51.090;-115.340;2023-08-24T05:04:39;86735.80;;;12.10
74539;BMP180;66042;51.090;-115.340;2023-08-24T05:07:06;86734.40;;;12.10
74539;BMP180;66042;51.090;-115.340;2023-08-24T05:09:33;86729.40;;;12.10
74539;BMP180;66042;51.090;-115.340;2023-08-24T05:12:00;86730.20;;;12.10
74539;BMP180;66042;51.090;-115.340;2023-08-24T05:14:27;86732.20;;;12.10
74539;BMP180;66042;51.090;-115.340;2023-08-24T05:16:54;86737.40;;;12.10
74539;BMP180;66042;51.090;-115.340;2023-08-24T05:19:21;86729.80;;;12.10
74539;BMP180;66042;51.090;-115.340;2023-08-24T05:21:48;86737.40;;;12.00
74539;BMP180;66042;51.090;-115.340;2023-08-24T05:24:15;86738.80;;;12.04
74539;BMP180;66042;51.090;-115.340;2023-08-24T05:26:43;86736.20;;;12.00
74539;BMP180;66042;51.090;-115.340;2023-08-24T05:29:10;86736.20;;;12.00
74539;BMP180;66042;51.090;-115.340;2023-08-24T05:31:37;86749.40;;;12.06
74539;BMP180;66042;51.090;-115.340;2023-08-24T05:34:04;86748.60;;;12.04
74539;BMP180;66042;51.090;-115.340;2023-08-24T05:36:31;86729.20;;;12.00
74539;BMP180;66042;51.090;-115.340;2023-08-24T05:38:58;86733.80;;;12.00
74539;BMP180;66042;51.090;-115.340;2023-08-24T05:41:25;86746.60;;;12.00
74539;BMP180;66042;51.090;-115.340;2023-08-24T05:43:52;86751.00;;;12.00
74539;BMP180;66042;51.090;-115.340;2023-08-24T05:46:20;86739.60;;;12.00
74539;BMP180;66042;51.090;-115.340;2023-08-24T05:48:46;86734.40;;;12.00
74539;BMP180;66042;51.090;-115.340;2023-08-24T05:51:14;86738.20;;;12.00
74539;BMP180;66042;51.090;-115.340;2023-08-24T05:53:41;86738.80;;;12.00
74539;BMP180;66042;51.090;-115.340;2023-08-24T05:56:08;86731.40;;;12.00
74539;BMP180;66042;51.090;-115.340;2023-08-24T05:58:35;86719.20;;;12.00
74539;BMP180;66042;51.090;-115.340;2023-08-24T06:01:02;86717.80;;;12.00
74539;BMP180;66042;51.090;-115.340;2023-08-24T06:03:29;86725.60;;;12.00
74539;BMP180;66042;51.090;-115.340;2023-08-24T06:06:04;86724.00;;;12.00
74539;BMP180;66042;51.090;-115.340;2023-08-24T06:08:32;86720.20;;;12.00
74539;BMP180;66042;51.090;-115.340;2023-08-24T06:10:59;86701.40;;;11.94
74539;BMP180;66042;51.090;-115.340;2023-08-24T06:13:26;86696.20;;;11.90
74539;BMP180;66042;51.090;-115.340;2023-08-24T06:15:54;86707.20;;;11.90
74539;BMP180;66042;51.090;-115.340;2023-08-24T06:18:21;86703.80;;;11.90
74539;BMP180;66042;51.090;-115.340;2023-08-24T06:20:51;86704.20;;;11.90
74539;BMP180;66042;51.090;-115.340;2023-08-24T06:23:19;86707.00;;;11.90
74539;BMP180;66042;51.090;-115.340;2023-08-24T06:25:46;86706.40;;;11.90
74539;BMP180;66042;51.090;-115.340;2023-08-24T06:28:14;86708.80;;;11.90
74539;BMP180;66042;51.090;-115.340;2023-08-24T06:30:42;86695.60;;;11.90
74539;BMP180;66042;51.090;-115.340;2023-08-24T06:33:16;86700.60;;;11.90
74539;BMP180;66042;51.090;-115.340;2023-08-24T06:35:43;86712.40;;;11.90
74539;BMP180;66042;51.090;-115.340;2023-08-24T06:38:10;86712.00;;;11.90
74539;BMP180;66042;51.090;-115.340;2023-08-24T06:40:38;86705.20;;;11.90
74539;BMP180;66042;51.090;-115.340;2023-08-24T06:43:06;86712.20;;;11.90
74539;BMP180;66042;51.090;-115.340;2023-08-24T06:45:33;86713.80;;;11.90
74539;BMP180;66042;51.090;-115.340;2023-08-24T06:48:00;86709.80;;;11.90
74539;BMP180;66042;51.090;-115.340;2023-08-24T06:50:27;86694.20;;;11.90
74539;BMP180;66042;51.090;-115.340;2023-08-24T06:52:54;86705.60;;;11.94
74539;BMP180;66042;51.090;-115.340;2023-08-24T06:55:21;86708.00;;;11.96
74539;BMP180;66042;51.090;-115.340;2023-08-24T06:57:49;86705.60;;;11.90
74539;BMP180;66042;51.090;-115.340;2023-08-24T07:00:20;86696.40;;;11.90
74539;BMP180;66042;51.090;-115.340;2023-08-24T07:02:50;86703.20;;;11.90
74539;BMP180;66042;51.090;-115.340;2023-08-24T07:05:17;86699.40;;;11.90
74539;BMP180;66042;51.090;-115.340;2023-08-24T07:07:49;86708.20;;;11.92
74539;BMP180;66042;51.090;-115.340;2023-08-24T07:10:16;86707.20;;;11.90
74539;BMP180;66042;51.090;-115.340;2023-08-24T07:12:44;86706.00;;;11.98
74539;BMP180;66042;51.090;-115.340;2023-08-24T07:15:12;86706.00;;;11.90
74539;BMP180;66042;51.090;-115.340;2023-08-24T07:17:40;86696.60;;;11.90
74539;BMP180;66042;51.090;-115.340;2023-08-24T07:20:07;86698.20;;;11.90
74539;BMP180;66042;51.090;-115.340;2023-08-24T07:22:35;86702.80;;;11.90
74539;BMP180;66042;51.090;-115.340;2023-08-24T07:25:02;86703.20;;;11.90
74539;BMP180;66042;51.090;-115.340;2023-08-24T07:27:33;86703.40;;;11.90
74539;BMP180;66042;51.090;-115.340;2023-08-24T07:30:01;86703.20;;;11.90
74539;BMP180;66042;51.090;-115.340;2023-08-24T07:32:32;86702.40;;;11.90
74539;BMP180;66042;51.090;-115.340;2023-08-24T07:34:59;86704.00;;;11.90
74539;BMP180;66042;51.090;-115.340;2023-08-24T07:37:27;86707.00;;;11.88
74539;BMP180;66042;51.090;-115.340;2023-08-24T07:39:54;86700.20;;;11.88
74539;BMP180;66042;51.090;-115.340;2023-08-24T07:42:21;86702.80;;;11.84
74539;BMP180;66042;51.090;-115.340;2023-08-24T07:44:49;86692.80;;;11.80
74539;BMP180;66042;51.090;-115.340;2023-08-24T07:47:16;86691.60;;;11.84
74539;BMP180;66042;51.090;-115.340;2023-08-24T07:49:43;86671.20;;;11.88
74539;BMP180;66042;51.090;-115.340;2023-08-24T07:52:11;86674.40;;;11.90
74539;BMP180;66042;51.090;-115.340;2023-08-24T07:54:39;86680.20;;;11.90
74539;BMP180;66042;51.090;-115.340;2023-08-24T07:57:06;86678.60;;;11.90
74539;BMP180;66042;51.090;-115.340;2023-08-24T07:59:34;86671.00;;;11.90
74539;BMP180;66042;51.090;-115.340;2023-08-24T08:02:01;86679.00;;;11.90
74539;BMP180;66042;51.090;-115.340;2023-08-24T08:04:28;86684.00;;;11.90
74539;BMP180;66042;51.090;-115.340;2023-08-24T08:06:55;86677.20;;;11.90
74539;BMP180;66042;51.090;-115.340;2023-08-24T08:09:22;86675.80;;;11.90
74539;BMP180;66042;51.090;-115.340;2023-08-24T08:11:49;86680.40;;;11.90
74539;BMP180;66042;51.090;-115.340;2023-08-24T08:14:17;86674.40;;;11.90
74539;BMP180;66042;51.090;-115.340;2023-08-24T08:16:44;86698.00;;;11.90
74539;BMP180;66042;51.090;-115.340;2023-08-24T08:19:11;86684.40;;;11.90
74539;BMP180;66042;51.090;-115.340;2023-08-24T08:21:38;86691.20;;;11.90
74539;BMP180;66042;51.090;-115.340;2023-08-24T08:24:05;86689.40;;;11.90
74539;BMP180;66042;51.090;-115.340;2023-08-24T08:26:33;86692.00;;;11.90
74539;BMP180;66042;51.090;-115.340;2023-08-24T08:29:00;86693.40;;;11.86
74539;BMP180;66042;51.090;-115.340;2023-08-24T08:31:27;86690.40;;;11.84
74539;BMP180;66042;51.090;-115.340;2023-08-24T08:33:54;86691.00;;;11.86
74539;BMP180;66042;51.090;-115.340;2023-08-24T08:36:21;86706.60;;;11.80
74539;BMP180;66042;51.090;-115.340;2023-08-24T08:38:49;86704.40;;;11.80
74539;BMP180;66042;51.090;-115.340;2023-08-24T08:41:17;86699.00;;;11.80
74539;BMP180;66042;51.090;-115.340;2023-08-24T08:43:47;86699.20;;;11.84
74539;BMP180;66042;51.090;-115.340;2023-08-24T08:46:15;86699.60;;;11.88
74539;BMP180;66042;51.090;-115.340;2023-08-24T08:48:48;86702.80;;;11.90
74539;BMP180;66042;51.090;-115.340;2023-08-24T08:51:18;86704.40;;;11.90
74539;BMP180;66042;51.090;-115.340;2023-08-24T08:53:45;86709.20;;;11.90
74539;BMP180;66042;51.090;-115.340;2023-08-24T08:56:12;86707.40;;;11.90
74539;BMP180;66042;51.090;-115.340;2023-08-24T08:58:41;86706.60;;;11.92
74539;BMP180;66042;51.090;-115.340;2023-08-24T09:01:10;86700.80;;;12.00
74539;BMP180;66042;51.090;-115.340;2023-08-24T09:03:39;86710.20;;;12.00
74539;BMP180;66042;51.090;-115.340;2023-08-24T09:06:06;86703.60;;;12.00
74539;BMP180;66042;51.090;-115.340;2023-08-24T09:08:33;86703.20;;;12.00
74539;BMP180;66042;51.090;-115.340;2023-08-24T09:11:00;86706.80;;;12.00
74539;BMP180;66042;51.090;-115.340;2023-08-24T09:13:31;86714.20;;;12.00
74539;BMP180;66042;51.090;-115.340;2023-08-24T09:16:09;86719.80;;;12.00
74539;BMP180;66042;51.090;-115.340;2023-08-24T09:18:46;86721.00;;;12.00
74539;BMP180;66042;51.090;-115.340;2023-08-24T09:21:15;86716.60;;;12.00
74539;BMP180;66042;51.090;-115.340;2023-08-24T09:23:53;86715.80;;;12.02
74539;BMP180;66042;51.090;-115.340;2023-08-24T09:26:35;86721.00;;;12.10
74539;BMP180;66042;51.090;-115.340;2023-08-24T09:29:16;86724.40;;;12.10
74539;BMP180;66042;51.090;-115.340;2023-08-24T09:31:44;86728.80;;;12.10
74539;BMP180;66042;51.090;-115.340;2023-08-24T09:34:11;86730.80;;;12.10
74539;BMP180;66042;51.090;-115.340;2023-08-24T09:36:40;86735.00;;;12.10
74539;BMP180;66042;51.090;-115.340;2023-08-24T09:39:07;86737.20;;;12.10
74539;BMP180;66042;51.090;-115.340;2023-08-24T09:41:51;86733.40;;;12.10
74539;BMP180;66042;51.090;-115.340;2023-08-24T09:44:18;86734.60;;;12.10
74539;BMP180;66042;51.090;-115.340;2023-08-24T09:46:46;86736.00;;;12.10
74539;BMP180;66042;51.090;-115.340;2023-08-24T09:49:17;86728.00;;;12.16
74539;BMP180;66042;51.090;-115.340;2023-08-24T09:51:46;86728.00;;;12.20
74539;BMP180;66042;51.090;-115.340;2023-08-24T09:54:17;86732.80;;;12.20
74539;BMP180;66042;51.090;-115.340;2023-08-24T09:56:49;86727.80;;;12.20
74539;BMP180;66042;51.090;-115.340;2023-08-24T09:59:18;86724.20;;;12.20
74539;BMP180;66042;51.090;-115.340;2023-08-24T10:01:49;86733.00;;;12.20
74539;BMP180;66042;51.090;-115.340;2023-08-24T10:04:25;86731.20;;;12.20
74539;BMP180;66042;51.090;-115.340;2023-08-24T10:07:22;86721.20;;;12.20
74539;BMP180;66042;51.090;-115.340;2023-08-24T10:10:02;86720.00;;;12.20
74539;BMP180;66042;51.090;-115.340;2023-08-24T10:12:38;86733.40;;;12.20
74539;BMP180;66042;51.090;-115.340;2023-08-24T10:15:07;86730.20;;;12.20
74539;BMP180;66042;51.090;-115.340;2023-08-24T10:17:36;86741.00;;;12.20
74539;BMP180;66042;51.090;-115.340;2023-08-24T10:20:06;86741.80;;;12.20
74539;BMP180;66042;51.090;-115.340;2023-08-24T10:22:37;86738.20;;;12.20
74539;BMP180;66042;51.090;-115.340;2023-08-24T10:25:08;86732.00;;;12.20
74539;BMP180;66042;51.090;-115.340;2023-08-24T10:27:40;86736.60;;;12.20
74539;BMP180;66042;51.090;-115.340;2023-08-24T10:30:14;86739.60;;;12.20
74539;BMP180;66042;51.090;-115.340;2023-08-24T10:32:43;86731.40;;;12.20
74539;BMP180;66042;51.090;-115.340;2023-08-24T10:35:12;86735.00;;;12.20
74539;BMP180;66042;51.090;-115.340;2023-08-24T10:37:44;86736.60;;;12.20
74539;BMP180;66042;51.090;-115.340;2023-08-24T10:40:14;86736.60;;;12.20
74539;BMP180;66042;51.090;-115.340;2023-08-24T10:42:57;86732.60;;;12.20
74539;BMP180;66042;51.090;-115.340;2023-08-24T10:45:25;86735.80;;;12.20
74539;BMP180;66042;51.090;-115.340;2023-08-24T10:47:53;86739.20;;;12.20
74539;BMP180;66042;51.090;-115.340;2023-08-24T10:50:22;86741.60;;;12.20
74539;BMP180;66042;51.090;-115.340;2023-08-24T10:52:49;86745.80;;;12.22
74539;BMP180;66042;51.090;-115.340;2023-08-24T10:55:26;86752.40;;;12.22
74539;BMP180;66042;51.090;-115.340;2023-08-24T10:58:01;86746.60;;;12.28
74539;BMP180;66042;51.090;-115.340;2023-08-24T11:00:30;86747.80;;;12.24
74539;BMP180;66042;51.090;-115.340;2023-08-24T11:02:57;86746.40;;;12.20
74539;BMP180;66042;51.090;-115.340;2023-08-24T11:05:33;86739.20;;;12.20
74539;BMP180;66042;51.090;-115.340;2023-08-24T11:08:03;86745.60;;;12.20
74539;BMP180;66042;51.090;-115.340;2023-08-24T11:13:19;86750.60;;;12.20
74539;BMP180;66042;51.090;-115.340;2023-08-24T11:15:51;86756.00;;;12.20
74539;BMP180;66042;51.090;-115.340;2023-08-24T11:18:30;86753.80;;;12.20
74539;BMP180;66042;51.090;-115.340;2023-08-24T11:21:05;86748.40;;;12.20
74539;BMP180;66042;51.090;-115.340;2023-08-24T11:23:33;86744.20;;;12.20
74539;BMP180;66042;51.090;-115.340;2023-08-24T11:26:03;86740.40;;;12.20
74539;BMP180;66042;51.090;-115.340;2023-08-24T11:28:31;86738.20;;;12.20
74539;BMP180;66042;51.090;-115.340;2023-08-24T11:30:59;86732.80;;;12.20
74539;BMP180;66042;51.090;-115.340;2023-08-24T11:33:32;86737.60;;;12.20
74539;BMP180;66042;51.090;-115.340;2023-08-24T11:36:02;86728.00;;;12.20
74539;BMP180;66042;51.090;-115.340;2023-08-24T11:38:37;86723.00;;;12.20
74539;BMP180;66042;51.090;-115.340;2023-08-24T11:41:18;86727.80;;;12.20
74539;BMP180;66042;51.090;-115.340;2023-08-24T11:43:47;86734.40;;;12.20
74539;BMP180;66042;51.090;-115.340;2023-08-24T11:46:19;86739.00;;;12.20
74539;BMP180;66042;51.090;-115.340;2023-08-24T11:48:46;86733.80;;;12.20
74539;BMP180;66042;51.090;-115.340;2023-08-24T11:51:14;86739.40;;;12.30
74539;BMP180;66042;51.090;-115.340;2023-08-24T11:53:45;86739.00;;;12.30
74539;BMP180;66042;51.090;-115.340;2023-08-24T11:56:15;86739.40;;;12.30
74539;BMP180;66042;51.090;-115.340;2023-08-24T11:58:49;86743.00;;;12.26
74539;BMP180;66042;51.090;-115.340;2023-08-24T12:01:19;86747.00;;;12.26
74539;BMP180;66042;51.090;-115.340;2023-08-24T12:03:46;86751.40;;;12.28
74539;BMP180;66042;51.090;-115.340;2023-08-24T12:06:17;86755.00;;;12.30
74539;BMP180;66042;51.090;-115.340;2023-08-24T12:08:47;86763.60;;;12.30
74539;BMP180;66042;51.090;-115.340;2023-08-24T12:11:21;86768.00;;;12.30
74539;BMP180;66042;51.090;-115.340;2023-08-24T12:13:55;86768.00;;;12.30
74539;BMP180;66042;51.090;-115.340;2023-08-24T12:16:23;86771.40;;;12.30
74539;BMP180;66042;51.090;-115.340;2023-08-24T12:18:58;86766.00;;;12.30
74539;BMP180;66042;51.090;-115.340;2023-08-24T12:21:31;86769.20;;;12.30
74539;BMP180;66042;51.090;-115.340;2023-08-24T12:24:04;86769.60;;;12.30
74539;BMP180;66042;51.090;-115.340;2023-08-24T12:26:35;86780.00;;;12.30
74539;BMP180;66042;51.090;-115.340;2023-08-24T12:29:05;86783.20;;;12.30
74539;BMP180;66042;51.090;-115.340;2023-08-24T12:31:34;86778.40;;;12.30
74539;BMP180;66042;51.090;-115.340;2023-08-24T12:34:06;86784.00;;;12.30
74539;BMP180;66042;51.090;-115.340;2023-08-24T12:36:37;86788.80;;;12.30
74539;BMP180;66042;51.090;-115.340;2023-08-24T12:39:06;86795.60;;;12.30
74539;BMP180;66042;51.090;-115.340;2023-08-24T12:41:36;86801.60;;;12.30
74539;BMP180;66042;51.090;-115.340;2023-08-24T12:44:03;86805.00;;;12.30
74539;BMP180;66042;51.090;-115.340;2023-08-24T12:46:38;86806.00;;;12.30
74539;BMP180;66042;51.090;-115.340;2023-08-24T12:49:05;86819.00;;;12.30
74539;BMP180;66042;51.090;-115.340;2023-08-24T12:51:32;86813.60;;;12.30
74539;BMP180;66042;51.090;-115.340;2023-08-24T12:53:59;86809.20;;;12.30
74539;BMP180;66042;51.090;-115.340;2023-08-24T12:56:27;86812.20;;;12.26
74539;BMP180;66042;51.090;-115.340;2023-08-24T12:58:54;86813.40;;;12.20
74539;BMP180;66042;51.090;-115.340;2023-08-24T13:01:21;86810.20;;;12.20
74539;BMP180;66042;51.090;-115.340;2023-08-24T13:03:48;86814.40;;;12.20
74539;BMP180;66042;51.090;-115.340;2023-08-24T13:06:15;86822.00;;;12.20
74539;BMP180;66042;51.090;-115.340;2023-08-24T13:08:42;86820.80;;;12.20
74539;BMP180;66042;51.090;-115.340;2023-08-24T13:11:10;86826.20;;;12.20
74539;BMP180;66042;51.090;-115.340;2023-08-24T13:13:41;86821.20;;;12.20
74539;BMP180;66042;51.090;-115.340;2023-08-24T13:16:07;86826.60;;;12.20
74539;BMP180;66042;51.090;-115.340;2023-08-24T13:18:35;86824.80;;;12.20
74539;BMP180;66042;51.090;-115.340;2023-08-24T13:21:02;86830.60;;;12.18
74539;BMP180;66042;51.090;-115.340;2023-08-24T13:23:32;86834.00;;;12.10
74539;BMP180;66042;51.090;-115.340;2023-08-24T13:26:00;86836.00;;;12.10
74539;BMP180;66042;51.090;-115.340;2023-08-24T13:28:28;86839.00;;;12.14
74539;BMP180;66042;51.090;-115.340;2023-08-24T13:30:56;86837.60;;;12.14
74539;BMP180;66042;51.090;-115.340;2023-08-24T13:33:23;86845.40;;;12.10
74539;BMP180;66042;51.090;-115.340;2023-08-24T13:35:50;86840.60;;;12.10
74539;BMP180;66042;51.090;-115.340;2023-08-24T13:38:17;86845.60;;;12.10
74539;BMP180;66042;51.090;-115.340;2023-08-24T13:40:43;86849.00;;;12.12
74539;BMP180;66042;51.090;-115.340;2023-08-24T13:43:10;86854.20;;;12.20
74539;BMP180;66042;51.090;-115.340;2023-08-24T13:45:37;86854.00;;;12.20
74539;BMP180;66042;51.090;-115.340;2023-08-24T13:48:05;86858.60;;;12.20